Time;durP1;ratioP1;P1;durP2;ratioP2;P2;SDS_P1;SDS_P2;PMS_P1;PMS_P2;Temp;Humidity;BMP_temperature;BMP_pressure;BME280_temperature;BME280_humidity;BME280_pressure;Samples;Min_cycle;Max_cycle;Signal;HPM_P1;HPM_P2
2021/05/23 00:02:24;;;;;;;25.92;10.27;;;;;;;8.36;91.18;101129.25;4998133;28;20057;-73
2021/05/23 00:04:52;;;;;;;22.85;9.93;;;;;;;8.32;91.15;101129.31;4999711;28;20138;-73
2021/05/23 00:07:26;;;;;;;18.48;9.68;;;;;;;8.29;90.93;101145.31;4996535;28;20058;-73
2021/05/23 00:09:55;;;;;;;27.92;10.35;;;;;;;8.28;90.63;101135.59;4999546;28;20293;-73
2021/05/23 00:12:22;;;;;;;19.38;9.38;;;;;;;8.29;91.35;101140.00;4996123;28;20511;-73
2021/05/23 00:14:49;;;;;;;24.77;10.88;;;;;;;8.27;91.92;101132.03;4998770;28;20305;-73
2021/05/23 00:17:16;;;;;;;22.00;9.23;;;;;;;8.30;90.97;101131.13;4994475;28;20062;-73
2021/05/23 00:19:44;;;;;;;24.02;10.23;;;;;;;8.34;91.58;101127.50;4997924;28;20058;-73
2021/05/23 00:22:11;;;;;;;26.58;10.27;;;;;;;8.36;91.90;101131.00;4995231;28;20496;-74
2021/05/23 00:24:38;;;;;;;23.92;10.43;;;;;;;8.33;91.67;101129.28;4999342;28;20062;-74
2021/05/23 00:27:06;;;;;;;24.58;9.45;;;;;;;8.31;91.46;101144.41;4997842;28;20069;-73
2021/05/23 00:29:34;;;;;;;24.73;9.90;;;;;;;8.28;91.33;101140.91;5000965;28;20444;-73
2021/05/23 00:32:01;;;;;;;22.77;9.23;;;;;;;8.27;91.58;101128.53;5001605;28;20144;-74
2021/05/23 00:34:28;;;;;;;26.90;10.45;;;;;;;8.27;91.19;101128.53;4999877;28;20062;-75
2021/05/23 00:36:56;;;;;;;25.40;10.30;;;;;;;8.29;91.29;101126.69;5004293;28;20061;-75
2021/05/23 00:39:23;;;;;;;23.77;10.50;;;;;;;8.26;91.17;101137.38;4998403;28;20066;-75
2021/05/23 00:41:50;;;;;;;23.60;9.45;;;;;;;8.26;90.74;101140.03;5004369;28;20092;-75
2021/05/23 00:44:18;;;;;;;23.23;8.77;;;;;;;8.23;91.08;101141.00;4997544;28;20081;-74
2021/05/23 00:46:45;;;;;;;22.35;8.85;;;;;;;8.21;90.64;101133.03;5003470;28;20053;-75
2021/05/23 00:49:13;;;;;;;20.17;9.32;;;;;;;8.23;91.53;101141.84;4997920;28;20061;-76
2021/05/23 00:51:40;;;;;;;23.55;10.07;;;;;;;8.27;92.56;101144.47;5002467;28;20070;-75
2021/05/23 00:54:07;;;;;;;24.48;10.88;;;;;;;8.28;93.32;101141.78;4998111;28;20056;-75
2021/05/23 00:56:36;;;;;;;22.73;10.43;;;;;;;8.30;92.99;101147.09;5002557;28;20066;-75
2021/05/23 00:59:03;;;;;;;24.90;10.48;;;;;;;8.31;92.74;101147.06;4996274;28;20153;-75
2021/05/23 01:02:30;;;;;;;22.80;9.32;;;;;;;8.32;92.24;101155.91;5001757;28;20267;-75
2021/05/23 01:04:59;;;;;;;27.77;12.70;;;;;;;8.33;92.51;101155.88;4978387;28;20074;-74
2021/05/23 01:07:28;;;;;;;23.58;11.75;;;;;;;8.31;92.42;101149.72;5001215;28;20057;-75
2021/05/23 01:09:56;;;;;;;28.65;10.70;;;;;;;8.31;92.26;101155.03;4997614;28;20070;-75
2021/05/23 01:13:01;;;;;;;23.27;10.40;;;;;;;8.33;92.77;101150.56;5014611;28;20062;-75
2021/05/23 01:15:30;;;;;;;24.15;10.80;;;;;;;8.31;92.25;101144.41;4996287;28;20058;-75
2021/05/23 01:18:02;;;;;;;28.30;11.20;;;;;;;8.36;92.57;101150.50;5000487;28;20077;-75
2021/05/23 01:20:46;;;;;;;22.45;10.88;;;;;;;8.35;92.61;101139.91;4999272;28;20081;-75
2021/05/23 01:23:34;;;;;;;21.27;9.98;;;;;;;8.35;91.83;101143.44;5001817;28;20066;-75
2021/05/23 01:26:07;;;;;;;26.13;12.13;;;;;;;8.38;92.45;101143.38;4998836;28;20060;-75
2021/05/23 01:28:38;;;;;;;30.40;12.85;;;;;;;8.37;92.73;101136.28;4997839;28;20058;-76
2021/05/23 01:31:08;;;;;;;33.05;12.98;;;;;;;8.33;92.52;101144.38;5000438;28;20116;-75
2021/05/23 01:33:35;;;;;;;31.00;13.50;;;;;;;8.28;92.73;101143.59;4997159;28;20324;-75
2021/05/23 01:36:04;;;;;;;28.52;12.32;;;;;;;8.31;92.59;101132.88;4998205;28;20057;-75
2021/05/23 01:38:33;;;;;;;34.85;13.50;;;;;;;8.30;92.63;101136.44;4998481;28;20069;-75
2021/05/23 01:41:07;;;;;;;29.13;12.70;;;;;;;8.34;93.31;101139.03;5000520;28;20058;-75
2021/05/23 01:43:36;;;;;;;34.92;15.05;;;;;;;8.33;92.94;101133.75;4997499;28;20388;-75
2021/05/23 01:46:04;;;;;;;35.47;14.73;;;;;;;8.33;92.77;101137.25;5001012;28;20064;-74
2021/05/23 01:48:33;;;;;;;36.03;14.73;;;;;;;8.31;92.18;101131.09;4997847;28;20093;-75
2021/05/23 01:51:01;;;;;;;33.95;15.30;;;;;;;8.29;92.55;101137.34;5000788;28;20084;-75
2021/05/23 01:53:28;;;;;;;38.30;15.82;;;;;;;8.27;92.72;101128.53;4998628;28;20064;-75
2021/05/23 01:55:55;;;;;;;34.05;14.23;;;;;;;8.23;92.72;101131.22;5001837;28;20528;-75
2021/05/23 01:58:24;;;;;;;39.85;15.57;;;;;;;8.20;92.53;101125.09;4999726;28;20157;-74
2021/05/23 02:00:52;;;;;;;36.90;15.75;;;;;;;8.19;92.24;101134.00;5001863;28;20053;-75
2021/05/23 02:03:21;;;;;;;27.67;13.80;;;;;;;8.19;92.48;101139.31;4997352;28;20357;-75
2021/05/23 02:05:51;;;;;;;40.45;19.15;;;;;;;8.15;92.10;101126.94;5001253;28;20057;-75
2021/05/23 02:08:19;;;;;;;37.40;16.40;;;;;;;8.16;93.02;101132.25;4997581;28;20069;-75
2021/05/23 02:10:48;;;;;;;39.97;17.00;;;;;;;8.13;92.92;101134.94;4996197;28;20062;-75
2021/05/23 02:13:15;;;;;;;34.05;15.80;;;;;;;8.09;92.03;101138.56;4997841;28;20073;-76
2021/05/23 02:15:45;;;;;;;36.95;16.52;;;;;;;8.13;92.76;101129.63;5000578;28;20487;-75
2021/05/23 02:18:12;;;;;;;41.92;19.15;;;;;;;8.15;93.10;101135.78;4995620;28;20061;-75
2021/05/23 02:20:40;;;;;;;38.17;17.42;;;;;;;8.17;93.30;101135.78;4998219;28;20066;-75
2021/05/23 02:23:13;;;;;;;39.15;15.95;;;;;;;8.15;93.49;101126.94;4994755;28;20065;-76
2021/05/23 02:25:40;;;;;;;41.40;17.38;;;;;;;8.21;93.65;101133.03;5001718;28;20062;-76
2021/05/23 02:28:09;;;;;;;41.58;18.05;;;;;;;8.20;93.11;101133.94;5001549;28;20062;-75
2021/05/23 02:30:39;;;;;;;37.85;17.42;;;;;;;8.23;93.32;101133.03;4993389;28;20066;-75
2021/05/23 02:33:09;;;;;;;41.67;19.23;;;;;;;8.25;93.65;101133.84;5001903;28;20398;-75
2021/05/23 02:35:38;;;;;;;43.95;19.13;;;;;;;8.30;93.59;101133.78;4993268;28;20096;-75
2021/05/23 02:38:08;;;;;;;43.08;17.38;;;;;;;8.30;93.71;101131.13;4999743;28;20062;-76
2021/05/23 02:40:37;;;;;;;43.30;18.42;;;;;;;8.33;93.76;101131.94;4993790;28;20066;-75
2021/05/23 02:43:06;;;;;;;79.88;33.42;;;;;;;8.38;93.81;101131.88;5004425;28;20058;-73
2021/05/23 02:45:34;;;;;;;46.03;20.95;;;;;;;8.40;93.85;101127.41;4992803;28;20058;-73
2021/05/23 02:48:03;;;;;;;50.05;21.67;;;;;;;8.43;93.82;101131.78;5001547;28;20681;-73
2021/05/23 02:50:35;;;;;;;54.50;23.88;;;;;;;8.48;94.14;101128.16;4993750;28;20141;-74
2021/05/23 02:53:05;;;;;;;55.83;22.73;;;;;;;8.50;94.20;101128.16;5001745;28;20094;-74
2021/05/23 02:55:34;;;;;;;55.78;24.77;;;;;;;8.58;94.43;101131.50;4997010;28;20065;-74
2021/05/23 02:58:02;;;;;;;53.20;23.10;;;;;;;8.59;94.21;101139.47;5000860;28;20073;-74
2021/05/23 03:00:29;;;;;;;52.65;22.60;;;;;;;8.62;94.48;101146.53;4994573;28;20097;-73
2021/05/23 03:02:57;;;;;;;54.42;22.23;;;;;;;8.62;94.61;101135.03;4999310;28;20062;-73
2021/05/23 03:05:25;;;;;;;54.15;23.20;;;;;;;8.66;94.53;101137.56;4998866;28;20058;-76
2021/05/23 03:07:55;;;;;;;56.33;23.73;;;;;;;8.67;94.53;101142.00;4995949;28;20061;-75
2021/05/23 03:10:24;;;;;;;52.10;22.48;;;;;;;8.70;93.93;101146.34;5000256;28;20148;-77
2021/05/23 03:12:53;;;;;;;54.42;21.48;;;;;;;8.69;94.49;101152.59;4992284;28;20283;-76
2021/05/23 03:15:23;;;;;;;41.53;18.48;;;;;;;8.65;93.50;101159.78;4998974;28;20068;-76
2021/05/23 03:17:50;;;;;;;35.78;16.58;;;;;;;8.66;93.50;101150.00;4993945;28;20081;-76
2021/05/23 03:20:19;;;;;;;32.53;15.13;;;;;;;8.65;93.35;101156.22;5001058;28;20108;-76
2021/05/23 03:22:48;;;;;;;26.42;11.98;;;;;;;8.62;92.47;101150.97;4997184;28;20054;-75
2021/05/23 03:25:17;;;;;;;21.23;11.45;;;;;;;8.67;91.00;101147.31;5001056;28;20056;-76
2021/05/23 03:27:44;;;;;;;23.67;12.23;;;;;;;8.70;91.86;101154.34;4993970;28;20058;-76
2021/05/23 03:30:14;;;;;;;26.50;13.23;;;;;;;8.70;91.93;101164.97;4999643;28;20061;-74
2021/05/23 03:32:41;;;;;;;27.60;13.15;;;;;;;8.71;92.17;101159.63;4997500;28;20101;-75
2021/05/23 03:35:10;;;;;;;24.55;13.18;;;;;;;8.75;92.25;101160.44;4997901;28;20429;-74
2021/05/23 03:37:38;;;;;;;27.52;13.48;;;;;;;8.72;92.28;101152.56;4996186;28;20082;-75
2021/05/23 03:40:10;;;;;;;32.90;13.65;;;;;;;8.76;92.74;101152.44;4997709;28;20453;-74
2021/05/23 03:42:38;;;;;;;26.88;14.40;;;;;;;8.77;92.94;101153.34;4997135;28;20472;-75
2021/05/23 03:45:08;;;;;;;33.15;14.35;;;;;;;8.77;92.98;101153.34;4997270;28;20058;-75
2021/05/23 03:47:36;;;;;;;23.33;11.65;;;;;;;8.75;92.14;101150.72;4996920;28;20090;-75
2021/05/23 03:50:05;;;;;;;21.88;11.93;;;;;;;8.73;92.16;101147.16;4998908;28;20058;-74
2021/05/23 03:52:33;;;;;;;16.70;8.80;;;;;;;8.68;90.91;101145.53;4995409;28;20072;-74
2021/05/23 03:55:01;;;;;;;15.18;7.53;;;;;;;8.60;90.20;101143.03;4999533;28;20058;-75
2021/05/23 03:57:28;;;;;;;12.88;7.22;;;;;;;8.58;90.39;101139.50;4995687;28;20061;-75
2021/05/23 03:59:57;;;;;;;12.85;6.32;;;;;;;8.53;90.21;101147.56;4996955;28;20069;-74
2021/05/23 04:02:24;;;;;;;13.10;6.50;;;;;;;8.54;90.54;101151.09;4997538;28;20068;-75
2021/05/23 04:04:56;;;;;;;11.98;5.63;;;;;;;8.53;90.75;101155.56;5001023;28;20081;-75
2021/05/23 04:07:25;;;;;;;11.40;6.38;;;;;;;8.50;90.25;101147.63;5000099;28;20101;-74
2021/05/23 04:09:55;;;;;;;14.27;6.85;;;;;;;8.51;90.47;101144.06;5004929;28;20141;-74
2021/05/23 04:12:26;;;;;;;12.93;7.18;;;;;;;8.53;90.76;101155.56;4996517;28;20336;-74
2021/05/23 04:14:53;;;;;;;19.30;8.75;;;;;;;8.53;90.70;101146.69;5004891;28;20512;-73
2021/05/23 04:17:21;;;;;;;16.30;9.10;;;;;;;8.56;90.98;101149.28;4994984;28;20153;-75
2021/05/23 04:19:48;;;;;;;15.82;8.52;;;;;;;8.59;91.34;101143.91;5005895;28;20061;-73
2021/05/23 04:22:16;;;;;;;23.50;11.30;;;;;;;8.60;91.61;101151.00;4996270;28;20069;-74
2021/05/23 04:24:43;;;;;;;25.98;11.38;;;;;;;8.62;91.59;101153.63;5002963;28;20065;-73
2021/05/23 04:27:10;;;;;;;25.13;12.65;;;;;;;8.65;91.88;101150.88;4995749;28;20159;-73
2021/05/23 04:29:37;;;;;;;32.45;15.07;;;;;;;8.67;92.64;101149.09;5003619;28;20070;-73
2021/05/23 04:32:07;;;;;;;29.05;13.75;;;;;;;8.70;93.04;101154.34;4996858;28;20123;-76
2021/05/23 04:34:36;;;;;;;35.83;17.25;;;;;;;8.78;93.19;101163.97;5001848;28;20069;-73
2021/05/23 04:37:04;;;;;;;37.13;16.48;;;;;;;8.86;93.11;101158.47;5000632;28;20145;-74
2021/05/23 04:39:32;;;;;;;42.85;19.13;;;;;;;8.94;93.27;101158.31;5003106;28;20065;-74
2021/05/23 04:41:59;;;;;;;44.55;18.42;;;;;;;8.98;93.01;101171.53;5001279;28;20068;-74
2021/05/23 04:44:46;;;;;;;34.80;16.38;;;;;;;9.02;92.97;101168.81;4997547;28;20164;-74
2021/05/23 04:47:13;;;;;;;40.20;18.33;;;;;;;9.07;93.21;101175.78;5003253;28;20069;-75
2021/05/23 04:49:42;;;;;;;48.78;19.65;;;;;;;9.12;92.33;101171.22;4997396;28;20069;-75
2021/05/23 04:52:11;;;;;;;46.03;19.35;;;;;;;9.14;92.05;101179.19;5003606;28;20410;-76
2021/05/23 04:54:40;;;;;;;43.10;18.08;;;;;;;9.17;92.22;101184.47;5013928;28;20066;-75
2021/05/23 04:57:07;;;;;;;36.33;16.45;;;;;;;9.12;92.63;101183.69;5001898;28;20062;-75
2021/05/23 04:59:35;;;;;;;36.05;17.02;;;;;;;9.14;92.45;101195.16;4997789;28;20065;-75
2021/05/23 05:02:03;;;;;;;33.05;14.88;;;;;;;9.09;91.89;101192.63;5003688;28;20477;-75
2021/05/23 05:04:31;;;;;;;25.20;12.60;;;;;;;8.98;91.05;101197.28;4998769;28;20101;-75
2021/05/23 05:06:59;;;;;;;24.17;10.88;;;;;;;8.95;90.67;101195.53;5005488;28;20257;-76
2021/05/23 05:09:27;;;;;;;13.77;7.93;;;;;;;8.90;88.97;101191.22;4995642;28;20057;-76
2021/05/23 05:11:54;;;;;;;15.85;7.85;;;;;;;8.90;88.90;101202.72;5003261;28;20054;-75
2021/05/23 05:14:22;;;;;;;13.90;6.70;;;;;;;8.86;88.30;101197.53;4995990;28;20054;-76
2021/05/23 05:16:49;;;;;;;14.52;6.03;;;;;;;8.83;87.80;101195.78;5003192;28;20065;-75
2021/05/23 05:19:16;;;;;;;10.23;5.47;;;;;;;8.75;85.64;101189.72;4997584;28;20068;-74
2021/05/23 05:21:44;;;;;;;8.93;4.85;;;;;;;8.70;86.15;101204.88;5003001;28;20058;-74
2021/05/23 05:24:12;;;;;;;9.60;4.60;;;;;;;8.65;87.44;101209.41;4996778;28;20065;-75
2021/05/23 05:26:40;;;;;;;12.80;5.32;;;;;;;8.62;86.90;101198.84;5000891;28;20362;-75
2021/05/23 05:29:07;;;;;;;9.57;5.03;;;;;;;8.62;87.40;101198.84;4997420;28;20348;-75
2021/05/23 05:31:35;;;;;;;8.70;5.10;;;;;;;8.59;86.25;101202.44;4999369;28;20062;-76
2021/05/23 05:34:03;;;;;;;8.10;4.18;;;;;;;8.67;88.27;101210.28;4997727;28;20092;-75
2021/05/23 05:36:30;;;;;;;11.88;5.28;;;;;;;8.71;87.86;101202.19;5001203;28;20057;-77
2021/05/23 05:38:58;;;;;;;12.52;5.40;;;;;;;8.80;88.09;101206.47;4996950;28;20081;-75
2021/05/23 05:41:27;;;;;;;25.50;8.05;;;;;;;9.00;89.04;101203.44;5001728;28;20441;-77
2021/05/23 05:43:54;;;;;;;24.20;10.20;;;;;;;9.27;89.27;101207.31;4999508;28;20101;-74
2021/05/23 05:46:21;;;;;;;25.00;11.43;;;;;;;9.46;89.24;101220.25;4999464;28;20058;-75
2021/05/23 05:48:49;;;;;;;29.40;10.90;;;;;;;9.58;88.65;101213.78;4995990;28;20058;-76
2021/05/23 05:51:16;;;;;;;23.50;9.23;;;;;;;9.67;87.25;101219.81;5001306;28;20120;-75
2021/05/23 05:53:43;;;;;;;25.75;10.23;;;;;;;9.74;87.03;101217.88;4995287;28;20149;-75
2021/05/23 05:56:10;;;;;;;21.83;7.88;;;;;;;9.77;86.40;101222.25;5003211;28;20055;-75
2021/05/23 05:58:38;;;;;;;24.02;8.38;;;;;;;9.85;85.78;101225.63;4996807;28;20080;-75
2021/05/23 06:01:06;;;;;;;21.17;8.25;;;;;;;10.01;85.08;101231.47;5000592;28;20365;-74
2021/05/23 06:03:33;;;;;;;24.23;7.88;;;;;;;9.96;85.01;101230.69;4998267;28;20144;-74
2021/05/23 06:06:00;;;;;;;19.90;7.65;;;;;;;9.86;84.91;101230.91;5001296;28;20066;-74
2021/05/23 06:08:28;;;;;;;22.13;8.32;;;;;;;9.81;84.41;101238.13;4996602;28;20425;-74
2021/05/23 06:10:55;;;;;;;19.65;7.88;;;;;;;9.77;84.00;101235.56;5000662;28;20069;-72
2021/05/23 06:13:22;;;;;;;22.83;8.27;;;;;;;9.97;83.71;101243.97;4998607;28;20089;-73
2021/05/23 06:15:50;;;;;;;23.30;7.00;;;;;;;9.76;83.27;101244.50;5000153;28;20064;-73
2021/05/23 06:18:23;;;;;;;19.58;7.25;;;;;;;9.89;82.98;101236.19;4997281;28;20068;-72
2021/05/23 06:20:51;;;;;;;15.93;7.07;;;;;;;10.04;82.81;101244.72;4997736;28;20065;-72
2021/05/23 06:23:19;;;;;;;18.27;6.50;;;;;;;10.90;79.32;101252.41;5000122;28;20370;-72
2021/05/23 06:25:46;;;;;;;27.48;6.90;;;;;;;10.94;77.60;101240.72;4993348;28;20062;-72
2021/05/23 06:28:14;;;;;;;16.15;6.32;;;;;;;11.29;77.41;101239.75;4999524;28;20062;-72
2021/05/23 06:30:41;;;;;;;20.17;7.15;;;;;;;12.07;76.63;101260.59;4998213;28;20085;-72
2021/05/23 06:33:10;;;;;;;14.98;6.22;;;;;;;11.68;78.48;101259.97;4999975;28;20068;-73
2021/05/23 06:35:37;;;;;;;17.17;6.47;;;;;;;11.14;79.27;101261.53;4993511;28;20058;-73
2021/05/23 06:38:05;;;;;;;18.13;6.90;;;;;;;10.80;79.23;101268.66;5001999;28;20065;-74
2021/05/23 06:40:32;;;;;;;20.17;6.63;;;;;;;10.75;79.75;101265.22;4996123;28;20066;-73
2021/05/23 06:42:59;;;;;;;15.60;6.43;;;;;;;10.57;79.27;101273.72;5002169;28;20065;-71
2021/05/23 06:45:27;;;;;;;20.38;5.93;;;;;;;10.60;79.46;101276.31;4997401;28;20149;-71
2021/05/23 06:47:54;;;;;;;22.70;6.22;;;;;;;10.56;79.58;101272.84;5002636;28;20289;-71
2021/05/23 06:50:22;;;;;;;15.00;5.28;;;;;;;10.73;79.01;101268.88;4997601;28;20322;-72
2021/05/23 06:52:50;;;;;;;20.30;6.00;;;;;;;11.14;77.82;101274.91;4999586;28;20858;-72
2021/05/23 06:55:17;;;;;;;17.77;6.10;;;;;;;11.47;78.03;101278.41;4998267;28;20152;-72
2021/05/23 06:57:44;;;;;;;16.65;5.90;;;;;;;11.67;75.53;101276.97;4998261;28;20073;-71
2021/05/23 07:00:13;;;;;;;20.13;6.53;;;;;;;11.72;76.19;101275.88;4997656;28;20058;-71
2021/05/23 07:02:41;;;;;;;19.88;5.85;;;;;;;11.76;75.88;101279.34;4998496;28;20073;-71
2021/05/23 07:05:09;;;;;;;17.05;6.63;;;;;;;11.48;76.41;101277.50;4997298;28;20634;-72
2021/05/23 07:07:37;;;;;;;19.02;8.52;;;;;;;11.57;77.29;101289.72;5001044;28;20062;-71
2021/05/23 07:10:05;;;;;;;16.65;7.63;;;;;;;11.43;76.98;101290.09;4994418;28;20392;-72
2021/05/23 07:12:33;;;;;;;14.23;7.18;;;;;;;11.28;76.95;101291.41;5004222;28;20063;-72
2021/05/23 07:15:00;;;;;;;12.68;6.03;;;;;;;11.12;77.47;101298.97;4992628;28;20446;-72
2021/05/23 07:17:27;;;;;;;15.23;5.97;;;;;;;10.86;79.15;101298.78;4999494;28;20062;-72
2021/05/23 07:19:55;;;;;;;14.07;5.85;;;;;;;10.80;81.52;101318.50;4994768;28;20066;-72
2021/05/23 07:22:24;;;;;;;15.07;6.05;;;;;;;10.83;81.42;101316.63;4997653;28;20066;-72
2021/05/23 07:24:52;;;;;;;13.70;6.65;;;;;;;10.65;82.55;101311.75;5010362;28;20061;-71
2021/05/23 07:27:19;;;;;;;14.70;7.18;;;;;;;10.89;81.53;101315.59;4999793;28;21018;-71
2021/05/23 07:29:47;;;;;;;12.88;6.35;;;;;;;11.45;80.96;101309.63;4995889;28;20081;-70
2021/05/23 07:32:14;;;;;;;15.65;6.25;;;;;;;11.82;79.50;101313.94;5000028;28;20164;-71
2021/05/23 07:34:41;;;;;;;10.85;4.53;;;;;;;11.67;78.61;101309.03;4996913;28;20489;-71
2021/05/23 07:37:08;;;;;;;13.90;5.63;;;;;;;11.84;76.45;101312.09;5002425;28;20657;-72
2021/05/23 07:39:35;;;;;;;12.65;4.70;;;;;;;12.05;73.94;101315.94;5001328;28;20062;-71
2021/05/23 07:42:04;;;;;;;12.35;4.20;;;;;;;11.46;73.71;101313.19;5000994;28;20072;-71
2021/05/23 07:44:31;;;;;;;9.32;3.65;;;;;;;11.75;73.62;101323.94;5000618;28;20061;-71
2021/05/23 07:46:59;;;;;;;10.30;3.28;;;;;;;11.98;71.56;101329.53;5001229;28;20097;-71
2021/05/23 07:49:26;;;;;;;8.07;3.65;;;;;;;11.71;72.11;101330.28;5002688;28;20369;-71
2021/05/23 07:51:53;;;;;;;9.13;3.30;;;;;;;11.95;72.14;101333.19;4999677;28;20396;-71
2021/05/23 07:54:20;;;;;;;10.00;3.60;;;;;;;11.75;71.12;101336.44;5004104;28;20495;-72
2021/05/23 07:56:49;;;;;;;11.23;3.53;;;;;;;11.64;72.97;101334.03;4996798;28;20144;-74
2021/05/23 07:59:17;;;;;;;8.27;3.70;;;;;;;11.30;73.56;101350.16;5004103;28;20455;-71
2021/05/23 08:01:44;;;;;;;14.07;4.25;;;;;;;10.96;73.92;101349.22;4999329;28;20062;-73
2021/05/23 08:04:12;;;;;;;6.72;3.55;;;;;;;10.73;75.75;101354.28;5002973;28;20096;-72
2021/05/23 08:06:39;;;;;;;13.20;4.10;;;;;;;10.71;77.32;101351.66;4998373;28;20345;-71
2021/05/23 08:09:06;;;;;;;9.48;3.65;;;;;;;10.36;76.80;101352.47;4999862;28;20756;-71
2021/05/23 08:11:34;;;;;;;10.98;3.55;;;;;;;10.28;79.78;101358.84;4999247;28;20468;-72
2021/05/23 08:14:01;;;;;;;10.38;3.42;;;;;;;10.41;78.55;101367.47;5000916;28;20072;-72
2021/05/23 08:16:30;;;;;;;9.20;3.00;;;;;;;10.13;77.50;101368.94;4997902;28;20294;-72
2021/05/23 08:18:57;;;;;;;9.40;3.75;;;;;;;10.14;78.18;101362.72;5000709;28;20066;-73
2021/05/23 08:21:25;;;;;;;8.63;3.88;;;;;;;10.14;79.56;101374.25;4997755;28;20057;-75
2021/05/23 08:23:52;;;;;;;9.77;4.15;;;;;;;10.25;78.67;101376.72;4998008;28;20057;-74
2021/05/23 08:26:19;;;;;;;11.40;4.20;;;;;;;10.34;79.52;101387.19;4999184;28;20054;-75
2021/05/23 08:28:47;;;;;;;11.38;4.07;;;;;;;10.34;79.49;101387.19;4999381;28;20069;-75
2021/05/23 08:31:14;;;;;;;15.27;6.03;;;;;;;10.54;79.51;101385.84;4997937;28;20076;-75
2021/05/23 08:33:42;;;;;;;11.07;4.07;;;;;;;10.49;77.86;101393.06;4998650;28;20092;-75
2021/05/23 08:36:10;;;;;;;11.23;4.18;;;;;;;10.58;76.90;101398.22;4995327;28;20536;-75
2021/05/23 08:38:37;;;;;;;13.27;4.13;;;;;;;10.78;76.95;101405.78;5000683;28;20061;-74
2021/05/23 08:41:05;;;;;;;20.90;4.13;;;;;;;11.03;76.71;101404.25;5009910;28;20176;-74
2021/05/23 08:43:32;;;;;;;12.80;4.47;;;;;;;11.36;74.26;101406.97;5001544;28;20062;-75
2021/05/23 08:46:00;;;;;;;12.88;4.20;;;;;;;11.60;75.55;101401.88;5001351;28;20057;-73
2021/05/23 08:48:33;;;;;;;12.13;5.10;;;;;;;11.64;72.64;101410.69;5003006;28;20065;-74
2021/05/23 08:51:02;;;;;;;18.48;6.13;;;;;;;11.66;71.14;101432.91;4995972;28;20350;-73
2021/05/23 08:53:30;;;;;;;17.02;5.03;;;;;;;11.49;70.23;101422.66;5000534;28;20173;-74
2021/05/23 08:55:57;;;;;;;14.90;3.80;;;;;;;11.68;69.93;101420.38;4998320;28;20068;-71
2021/05/23 08:58:25;;;;;;;11.52;3.90;;;;;;;11.61;69.90;101430.34;5000451;28;20053;-71
2021/05/23 09:00:53;;;;;;;12.30;3.72;;;;;;;11.58;70.00;101427.78;4997951;28;20069;-71
2021/05/23 09:03:20;;;;;;;9.43;3.60;;;;;;;11.86;70.22;101424.34;4997015;28;20069;-71
2021/05/23 09:05:48;;;;;;;14.52;4.70;;;;;;;11.74;67.58;101431.78;5012214;28;20464;-71
2021/05/23 09:08:19;;;;;;;15.57;3.92;;;;;;;12.13;69.68;101430.72;4998942;28;20152;-70
2021/05/23 09:10:48;;;;;;;12.02;3.63;;;;;;;11.92;66.49;101432.25;4999842;28;20124;-70
2021/05/23 09:13:28;;;;;;;12.40;4.22;;;;;;;12.00;67.00;101432.00;4998421;28;20102;-70
2021/05/23 09:16:00;;;;;;;13.57;4.75;;;;;;;12.10;67.33;101437.03;5000940;28;20062;-70
2021/05/23 09:18:39;;;;;;;12.10;3.90;;;;;;;12.78;65.21;101435.00;4995106;28;20077;-70
2021/05/23 09:21:07;;;;;;;9.82;3.45;;;;;;;12.40;64.58;101436.19;4999700;28;20132;-71
2021/05/23 09:23:46;;;;;;;11.85;3.95;;;;;;;12.05;64.08;101435.41;4992851;28;20068;-71
2021/05/23 09:26:19;;;;;;;9.40;3.53;;;;;;;11.71;65.32;101437.22;5000796;28;20073;-72
2021/05/23 09:28:47;;;;;;;16.67;3.63;;;;;;;11.59;66.22;101451.81;4995178;28;20061;-72
2021/05/23 09:31:16;;;;;;;12.43;4.05;;;;;;;11.57;68.32;101455.41;5002787;28;20099;-71
2021/05/23 09:33:45;;;;;;;14.52;3.75;;;;;;;11.70;66.70;101450.63;4996244;28;20068;-72
2021/05/23 09:36:12;;;;;;;12.77;4.55;;;;;;;11.88;67.16;101454.59;5002651;28;20088;-72
2021/05/23 09:38:50;;;;;;;10.95;3.83;;;;;;;12.70;66.34;101456.66;4997110;28;20156;-72
2021/05/23 09:41:18;;;;;;;8.20;3.55;;;;;;;12.54;66.33;101442.00;4998764;28;20085;-73
2021/05/23 09:43:46;;;;;;;12.23;4.20;;;;;;;12.26;65.99;101455.31;4995754;28;20069;-72
2021/05/23 09:46:13;;;;;;;11.52;4.00;;;;;;;12.08;65.82;101454.94;5001616;28;20311;-73
2021/05/23 09:48:49;;;;;;;12.98;4.68;;;;;;;12.23;66.92;101458.97;4994775;28;20152;-73
2021/05/23 09:51:18;;;;;;;13.13;4.63;;;;;;;12.27;67.19;101465.09;5000281;28;20072;-74
2021/05/23 09:53:58;;;;;;;11.02;3.67;;;;;;;12.21;65.25;101478.66;4993664;28;20057;-74
2021/05/23 09:56:31;;;;;;;16.23;4.38;;;;;;;12.27;65.35;101471.31;4998316;28;20069;-74
2021/05/23 09:58:59;;;;;;;;;;;;;;;12.74;64.29;101478.00;4995932;28;20058;-73
2021/05/23 10:01:28;;;;;;;10.30;4.05;;;;;;;13.45;62.19;101482.84;4997755;28;19932;-74
2021/05/23 10:03:57;;;;;;;11.35;3.72;;;;;;;13.06;61.11;101474.31;5009705;28;20165;-74
2021/05/23 10:06:28;;;;;;;9.82;3.50;;;;;;;12.93;61.01;101484.53;4998477;28;20449;-74
2021/05/23 10:08:57;;;;;;;9.15;3.08;;;;;;;13.20;59.48;101484.56;4995954;28;20153;-74
2021/05/23 10:11:26;;;;;;;7.38;3.00;;;;;;;14.24;59.35;101471.16;4994853;28;20073;-74
2021/05/23 10:13:54;;;;;;;7.93;2.90;;;;;;;13.66;56.41;101495.59;4996146;28;20116;-74
2021/05/23 10:16:23;;;;;;;11.05;3.30;;;;;;;13.86;54.62;101476.09;4996252;28;20082;-74
2021/05/23 10:18:51;;;;;;;5.55;2.67;;;;;;;13.71;53.97;101497.16;4997890;28;20408;-73
2021/05/23 10:21:19;;;;;;;9.27;2.58;;;;;;;13.97;50.88;101498.91;4995595;28;20509;-72
2021/05/23 10:23:48;;;;;;;6.70;2.78;;;;;;;13.68;50.32;101508.00;4998611;28;20057;-72
2021/05/23 10:26:22;;;;;;;9.38;2.72;;;;;;;13.77;51.28;101507.69;4992368;28;20092;-73
2021/05/23 10:28:51;;;;;;;8.20;3.13;;;;;;;13.77;50.15;101513.06;4999408;28;20084;-75
2021/05/23 10:31:28;;;;;;;8.57;2.40;;;;;;;13.52;48.02;101515.69;4994968;28;20062;-72
2021/05/23 10:33:56;;;;;;;5.30;2.17;;;;;;;14.08;47.57;101509.28;4997306;28;20068;-73
2021/05/23 10:36:31;;;;;;;5.22;2.42;;;;;;;13.48;47.40;101515.84;4995318;28;20057;-73
2021/05/23 10:39:01;;;;;;;8.00;2.30;;;;;;;13.45;48.86;101515.03;5000322;28;20349;-74
2021/05/23 10:41:29;;;;;;;5.70;2.25;;;;;;;13.40;46.63;101530.38;4995537;28;20067;-74
2021/05/23 10:44:16;;;;;;;7.18;2.40;;;;;;;13.66;46.64;101522.41;4999652;28;20145;-74
2021/05/23 10:46:46;;;;;;;6.30;2.58;;;;;;;13.58;48.56;101518.16;4996548;28;20160;-72
2021/05/23 10:49:14;;;;;;;6.78;2.40;;;;;;;14.80;46.91;101519.16;4998923;28;20062;-75
2021/05/23 10:51:51;;;;;;;6.13;2.40;;;;;;;14.36;46.52;101517.19;4997911;28;20057;-74
2021/05/23 10:54:18;;;;;;;5.35;1.90;;;;;;;15.01;47.17;101517.44;4995217;28;20066;-74
2021/05/23 10:56:47;;;;;;;6.65;2.45;;;;;;;14.59;45.60;101519.97;4998766;28;20323;-74
2021/05/23 10:59:14;;;;;;;5.05;2.30;;;;;;;14.53;46.57;101527.31;4990485;28;20062;-74
2021/05/23 11:01:43;;;;;;;7.45;3.05;;;;;;;15.12;45.61;101520.56;4997675;28;20081;-76
2021/05/23 11:04:13;;;;;;;5.22;2.20;;;;;;;14.53;46.96;101510.31;4997066;28;20149;-73
2021/05/23 11:06:42;;;;;;;6.80;2.92;;;;;;;14.55;46.26;101519.19;5000248;28;20073;-74
2021/05/23 11:09:11;;;;;;;6.72;2.30;;;;;;;14.06;45.66;101524.53;4994077;28;20866;-73
2021/05/23 11:11:39;;;;;;;4.70;2.35;;;;;;;14.23;45.19;101525.75;4997892;28;20097;-73
2021/05/23 11:14:21;;;;;;;5.78;2.50;;;;;;;14.55;46.04;101520.06;4995548;28;20496;-73
2021/05/23 11:16:50;;;;;;;3.88;2.13;;;;;;;14.31;45.02;101512.94;5000898;28;20065;-74
2021/05/23 11:19:18;;;;;;;6.95;2.45;;;;;;;13.81;45.75;101528.09;4996096;28;21048;-74
2021/05/23 11:21:47;;;;;;;10.23;2.40;;;;;;;14.43;45.33;101533.94;4997999;28;20062;-75
2021/05/23 11:24:16;;;;;;;9.57;3.00;;;;;;;14.22;44.69;101538.31;4995634;28;20115;-73
2021/05/23 11:26:44;;;;;;;5.57;2.30;;;;;;;14.11;45.71;101537.81;4995763;28;20517;-74
2021/05/23 11:29:11;;;;;;;6.97;2.38;;;;;;;14.58;45.84;101532.50;4996296;28;20064;-73